Terminal Aerodrome Forecast
Issued by NWS Duluth, MN

Home | Current Version | Previous Version | Text Only | Print | Product List | Glossary On
Versions: 1 2 3 4 5 6 7 8 9 10 11 12 13 14 15 16 17 18 19 20 21 22 23 24 25 26 27 28 29 30
000
FTUS43 KDLH 242000 AAA
TAFDLH
TAF AMD
KDLH 242024Z 2420/2518 09016G25KT 1 1/2SM -SN BR OVC005
      TEMPO 2420/2422 1/2SM SN OVC010
     FM242200 08012KT 2SM -SN BR OVC006
      TEMPO 2422/2424 1SM -SN OVC015
     FM250300 05005KT 3SM -DZ BR OVC005
     FM250900 11003KT 2SM BR OVC003
     FM251200 33012KT P6SM VCSH OVC030=

USA.gov is the U.S. government's official web portal to all federal, state and local government web resources and services.